sensor_id;sensor_type;location;lat;lon;timestamp;pressure;altitude;pressure_sealevel;temperature;humidity
70434;BME280;57876;47.792;12.960;2023-03-14T00:00:32;95239.34;;;15.87;44.67
70434;BME280;57876;47.792;12.960;2023-03-14T00:02:57;95242.06;;;15.87;44.69
70434;BME280;57876;47.792;12.960;2023-03-14T00:05:21;95257.28;;;15.88;44.53
70434;BME280;57876;47.792;12.960;2023-03-14T00:07:46;95251.03;;;15.88;44.87
70434;BME280;57876;47.792;12.960;2023-03-14T00:10:12;95249.38;;;15.83;44.32
70434;BME280;57876;47.792;12.960;2023-03-14T00:12:38;95265.81;;;15.87;44.52
70434;BME280;57876;47.792;12.960;2023-03-14T00:15:02;95281.38;;;15.86;44.30
70434;BME280;57876;47.792;12.960;2023-03-14T00:17:28;95293.88;;;15.87;44.47
70434;BME280;57876;47.792;12.960;2023-03-14T00:19:52;95306.72;;;15.87;44.62
70434;BME280;57876;47.792;12.960;2023-03-14T00:22:18;95307.44;;;15.83;44.50
70434;BME280;57876;47.792;12.960;2023-03-14T00:24:42;95317.19;;;15.84;44.62
70434;BME280;57876;47.792;12.960;2023-03-14T00:27:06;95327.28;;;15.84;44.64
70434;BME280;57876;47.792;12.960;2023-03-14T00:29:31;95337.06;;;15.85;44.60
70434;BME280;57876;47.792;12.960;2023-03-14T00:31:55;95337.06;;;15.85;44.92
70434;BME280;57876;47.792;12.960;2023-03-14T00:34:20;95330.81;;;15.84;44.33
70434;BME280;57876;47.792;12.960;2023-03-14T00:36:44;95326.16;;;15.85;44.51
70434;BME280;57876;47.792;12.960;2023-03-14T00:39:09;95330.81;;;15.84;44.18
70434;BME280;57876;47.792;12.960;2023-03-14T00:41:33;95317.19;;;15.84;44.57
70434;BME280;57876;47.792;12.960;2023-03-14T00:43:57;95323.44;;;15.85;44.73
70434;BME280;57876;47.792;12.960;2023-03-14T00:46:22;95321.84;;;15.84;44.27
70434;BME280;57876;47.792;12.960;2023-03-14T00:48:46;95312.88;;;15.83;44.62
70434;BME280;57876;47.792;12.960;2023-03-14T00:51:11;95296.06;;;15.81;44.49
70434;BME280;57876;47.792;12.960;2023-03-14T00:53:38;95288.34;;;15.83;44.45
70434;BME280;57876;47.792;12.960;2023-03-14T00:56:06;95282.88;;;15.83;44.70
70434;BME280;57876;47.792;12.960;2023-03-14T00:58:30;95277.78;;;15.82;44.46
70434;BME280;57876;47.792;12.960;2023-03-14T01:00:55;95285.63;;;15.83;44.08
70434;BME280;57876;47.792;12.960;2023-03-14T01:03:19;95275.06;;;15.82;44.14
70434;BME280;57876;47.792;12.960;2023-03-14T01:05:43;95271.47;;;15.78;44.59
70434;BME280;57876;47.792;12.960;2023-03-14T01:08:08;95259.84;;;15.81;44.23
70434;BME280;57876;47.792;12.960;2023-03-14T01:10:34;95264.16;;;15.82;44.24
70434;BME280;57876;47.792;12.960;2023-03-14T01:12:58;95234.53;;;15.80;44.21
70434;BME280;57876;47.792;12.960;2023-03-14T01:15:23;95213.50;;;15.81;44.46
70434;BME280;57876;47.792;12.960;2023-03-14T01:17:47;95218.53;;;15.79;44.38
70434;BME280;57876;47.792;12.960;2023-03-14T01:20:13;95219.69;;;15.78;44.18
70434;BME280;57876;47.792;12.960;2023-03-14T01:22:39;95243.06;;;15.79;44.17
70434;BME280;57876;47.792;12.960;2023-03-14T01:25:04;95248.94;;;15.81;44.43
70434;BME280;57876;47.792;12.960;2023-03-14T01:27:28;95260.19;;;15.79;44.55
70434;BME280;57876;47.792;12.960;2023-03-14T01:29:53;95263.75;;;15.80;44.55
70434;BME280;57876;47.792;12.960;2023-03-14T01:32:17;95266.03;;;15.78;44.17
70434;BME280;57876;47.792;12.960;2023-03-14T01:34:42;95266.03;;;15.78;44.30
70434;BME280;57876;47.792;12.960;2023-03-14T01:37:06;95270.31;;;15.79;44.10
70434;BME280;57876;47.792;12.960;2023-03-14T01:39:32;95269.53;;;15.78;44.51
70434;BME280;57876;47.792;12.960;2023-03-14T01:41:56;95264.09;;;15.78;44.31
70434;BME280;57876;47.792;12.960;2023-03-14T01:44:20;95253.91;;;15.75;44.29
70434;BME280;57876;47.792;12.960;2023-03-14T01:46:45;95273.03;;;15.79;44.21
70434;BME280;57876;47.792;12.960;2023-03-14T01:49:22;95264.81;;;15.75;44.23
70434;BME280;57876;47.792;12.960;2023-03-14T01:52:05;95274.66;;;15.80;44.35
70434;BME280;57876;47.792;12.960;2023-03-14T01:54:37;95275.00;;;15.78;44.31
70434;BME280;57876;47.792;12.960;2023-03-14T01:59:33;95276.50;;;15.76;44.37
70434;BME280;57876;47.792;12.960;2023-03-14T02:01:58;95279.66;;;15.78;44.17
70434;BME280;57876;47.792;12.960;2023-03-14T02:04:25;95285.88;;;15.78;44.12
70434;BME280;57876;47.792;12.960;2023-03-14T02:07:08;95287.38;;;15.76;44.23
70434;BME280;57876;47.792;12.960;2023-03-14T02:09:34;95283.50;;;15.77;44.29
70434;BME280;57876;47.792;12.960;2023-03-14T02:11:59;95278.06;;;15.77;44.64
70434;BME280;57876;47.792;12.960;2023-03-14T02:14:31;95264.44;;;15.77;44.07
70434;BME280;57876;47.792;12.960;2023-03-14T02:16:56;95246.06;;;15.74;43.70
70434;BME280;57876;47.792;12.960;2023-03-14T02:19:36;95230.16;;;15.76;44.26
70434;BME280;57876;47.792;12.960;2023-03-14T02:22:09;95234.81;;;15.75;44.26
70434;BME280;57876;47.792;12.960;2023-03-14T02:24:49;95237.53;;;15.75;44.06
70434;BME280;57876;47.792;12.960;2023-03-14T02:27:17;95232.09;;;15.75;44.09
70434;BME280;57876;47.792;12.960;2023-03-14T02:29:58;95232.88;;;15.76;44.13
70434;BME280;57876;47.792;12.960;2023-03-14T02:32:25;95238.31;;;15.76;44.17
70434;BME280;57876;47.792;12.960;2023-03-14T02:34:57;95224.97;;;15.71;43.97
70434;BME280;57876;47.792;12.960;2023-03-14T02:37:26;95232.81;;;15.72;44.43
70434;BME280;57876;47.792;12.960;2023-03-14T02:39:52;95244.94;;;15.75;44.42
70434;BME280;57876;47.792;12.960;2023-03-14T02:42:17;95242.22;;;15.75;44.60
70434;BME280;57876;47.792;12.960;2023-03-14T02:47:43;95243.59;;;15.69;44.37
70434;BME280;57876;47.792;12.960;2023-03-14T02:50:14;95253.00;;;15.71;44.08
70434;BME280;57876;47.792;12.960;2023-03-14T02:52:39;95267.09;;;15.73;44.43
70434;BME280;57876;47.792;12.960;2023-03-14T02:55:04;95269.81;;;15.73;44.17
70434;BME280;57876;47.792;12.960;2023-03-14T02:57:29;95273.31;;;15.74;44.38
70434;BME280;57876;47.792;12.960;2023-03-14T02:59:53;95267.09;;;15.73;43.96
70434;BME280;57876;47.792;12.960;2023-03-14T03:02:18;95270.59;;;15.74;44.19
70434;BME280;57876;47.792;12.960;2023-03-14T03:04:42;95268.59;;;15.71;43.97
70434;BME280;57876;47.792;12.960;2023-03-14T03:07:06;95265.50;;;15.72;44.27
70434;BME280;57876;47.792;12.960;2023-03-14T03:09:31;95286.16;;;15.73;44.53
70434;BME280;57876;47.792;12.960;2023-03-14T03:11:55;95280.28;;;15.71;44.63
70434;BME280;57876;47.792;12.960;2023-03-14T03:14:20;95262.78;;;15.72;44.17
70434;BME280;57876;47.792;12.960;2023-03-14T03:16:44;95254.59;;;15.72;44.08
70434;BME280;57876;47.792;12.960;2023-03-14T03:19:08;95255.75;;;15.71;43.90
70434;BME280;57876;47.792;12.960;2023-03-14T03:21:33;95265.50;;;15.72;44.22
70434;BME280;57876;47.792;12.960;2023-03-14T03:23:57;95271.75;;;15.73;44.04
70434;BME280;57876;47.792;12.960;2023-03-14T03:26:22;95253.81;;;15.72;44.09
70434;BME280;57876;47.792;12.960;2023-03-14T03:28:46;95267.00;;;15.70;44.47
70434;BME280;57876;47.792;12.960;2023-03-14T03:31:11;95261.19;;;15.71;44.42
70434;BME280;57876;47.792;12.960;2023-03-14T03:33:37;95258.47;;;15.71;44.19
70434;BME280;57876;47.792;12.960;2023-03-14T03:36:01;95270.19;;;15.72;44.40
70434;BME280;57876;47.792;12.960;2023-03-14T03:38:26;95272.09;;;15.71;44.22
70434;BME280;57876;47.792;12.960;2023-03-14T03:40:50;95272.47;;;15.70;44.33
70434;BME280;57876;47.792;12.960;2023-03-14T03:43:14;95278.69;;;15.70;44.06
70434;BME280;57876;47.792;12.960;2023-03-14T03:45:39;95282.59;;;15.69;43.91
70434;BME280;57876;47.792;12.960;2023-03-14T03:48:04;95282.22;;;15.71;44.59
70434;BME280;57876;47.792;12.960;2023-03-14T03:50:28;95267.78;;;15.70;44.18
70434;BME280;57876;47.792;12.960;2023-03-14T03:52:53;95274.03;;;15.71;44.19
70434;BME280;57876;47.792;12.960;2023-03-14T03:55:17;95283.00;;;15.71;44.24
70434;BME280;57876;47.792;12.960;2023-03-14T03:57:41;95286.88;;;15.70;44.34
70434;BME280;57876;47.792;12.960;2023-03-14T04:00:07;95282.91;;;15.68;44.13
70434;BME280;57876;47.792;12.960;2023-03-14T04:02:33;95286.41;;;15.68;44.22
70434;BME280;57876;47.792;12.960;2023-03-14T04:04:57;95289.94;;;15.69;44.12
70434;BME280;57876;47.792;12.960;2023-03-14T04:07:22;95297.00;;;15.70;44.48
70434;BME280;57876;47.792;12.960;2023-03-14T04:09:46;95306.75;;;15.71;44.39
70434;BME280;57876;47.792;12.960;2023-03-14T04:12:10;95314.13;;;15.70;44.36
70434;BME280;57876;47.792;12.960;2023-03-14T04:14:35;95311.97;;;15.63;44.47
70434;BME280;57876;47.792;12.960;2023-03-14T04:16:59;95326.97;;;15.70;44.45
70434;BME280;57876;47.792;12.960;2023-03-14T04:19:24;95333.22;;;15.70;44.23
70434;BME280;57876;47.792;12.960;2023-03-14T04:21:48;95342.53;;;15.69;44.13
70434;BME280;57876;47.792;12.960;2023-03-14T04:24:13;95351.50;;;15.70;43.95
70434;BME280;57876;47.792;12.960;2023-03-14T04:26:37;95348.00;;;15.69;44.20
70434;BME280;57876;47.792;12.960;2023-03-14T04:29:01;95356.16;;;15.69;44.21
70434;BME280;57876;47.792;12.960;2023-03-14T04:31:26;95364.34;;;15.69;44.23
70434;BME280;57876;47.792;12.960;2023-03-14T04:33:51;95369.31;;;15.67;44.21
70434;BME280;57876;47.792;12.960;2023-03-14T04:36:15;95370.44;;;15.66;44.11
70434;BME280;57876;47.792;12.960;2023-03-14T04:38:40;95378.28;;;15.68;44.47
70434;BME280;57876;47.792;12.960;2023-03-14T04:41:04;95384.53;;;15.68;44.11
70434;BME280;57876;47.792;12.960;2023-03-14T04:43:29;95383.75;;;15.68;44.32
70434;BME280;57876;47.792;12.960;2023-03-14T04:45:55;95376.72;;;15.67;44.23
70434;BME280;57876;47.792;12.960;2023-03-14T04:48:20;95362.63;;;15.64;43.99
70434;BME280;57876;47.792;12.960;2023-03-14T04:50:46;95364.66;;;15.68;43.86
70434;BME280;57876;47.792;12.960;2023-03-14T04:53:10;95331.50;;;15.66;44.32
70434;BME280;57876;47.792;12.960;2023-03-14T04:55:34;95322.22;;;15.67;44.25
70434;BME280;57876;47.792;12.960;2023-03-14T04:57:59;95301.97;;;15.68;44.14
70434;BME280;57876;47.792;12.960;2023-03-14T05:00:24;95288.34;;;15.68;44.04
70434;BME280;57876;47.792;12.960;2023-03-14T05:02:48;95285.63;;;15.68;44.08
70434;BME280;57876;47.792;12.960;2023-03-14T05:05:12;95291.84;;;15.68;43.99
70434;BME280;57876;47.792;12.960;2023-03-14T05:07:37;95305.47;;;15.68;44.28
70434;BME280;57876;47.792;12.960;2023-03-14T05:10:01;95298.00;;;15.65;43.97
70434;BME280;57876;47.792;12.960;2023-03-14T05:12:26;95295.41;;;15.69;44.28
70434;BME280;57876;47.792;12.960;2023-03-14T05:14:50;95285.63;;;15.68;44.41
70434;BME280;57876;47.792;12.960;2023-03-14T05:17:14;95280.50;;;15.66;44.50
70434;BME280;57876;47.792;12.960;2023-03-14T05:19:39;95299.59;;;15.66;44.24
70434;BME280;57876;47.792;12.960;2023-03-14T05:22:04;95295.63;;;15.63;43.95
70434;BME280;57876;47.792;12.960;2023-03-14T05:24:28;95281.66;;;15.65;44.40
70434;BME280;57876;47.792;12.960;2023-03-14T05:26:53;95275.88;;;15.67;44.07
70434;BME280;57876;47.792;12.960;2023-03-14T05:29:17;95278.16;;;15.64;44.29
70434;BME280;57876;47.792;12.960;2023-03-14T05:31:42;95273.16;;;15.67;44.24
70434;BME280;57876;47.792;12.960;2023-03-14T05:34:06;95272.00;;;15.68;44.34
70434;BME280;57876;47.792;12.960;2023-03-14T05:36:30;95266.09;;;15.66;44.11
70434;BME280;57876;47.792;12.960;2023-03-14T05:38:55;95263.38;;;15.66;44.27
70434;BME280;57876;47.792;12.960;2023-03-14T05:41:19;95253.25;;;15.66;44.02
70434;BME280;57876;47.792;12.960;2023-03-14T05:43:44;95238.50;;;15.67;44.27
70434;BME280;57876;47.792;12.960;2023-03-14T05:46:08;95225.16;;;15.62;44.31
70434;BME280;57876;47.792;12.960;2023-03-14T05:48:32;95231.09;;;15.68;44.04
70434;BME280;57876;47.792;12.960;2023-03-14T05:50:57;95218.19;;;15.64;44.37
70434;BME280;57876;47.792;12.960;2023-03-14T05:53:23;95206.13;;;15.66;43.98
70434;BME280;57876;47.792;12.960;2023-03-14T05:55:51;95206.13;;;15.66;43.83
70434;BME280;57876;47.792;12.960;2023-03-14T05:58:15;95215.91;;;15.67;44.27
70434;BME280;57876;47.792;12.960;2023-03-14T06:00:40;95215.09;;;15.66;44.27
70434;BME280;57876;47.792;12.960;2023-03-14T06:03:04;95211.59;;;15.66;43.98
70434;BME280;57876;47.792;12.960;2023-03-14T06:05:28;95212.03;;;15.68;44.05
70434;BME280;57876;47.792;12.960;2023-03-14T06:07:53;95212.38;;;15.66;43.98
70434;BME280;57876;47.792;12.960;2023-03-14T06:10:17;95216.69;;;15.67;44.01
70434;BME280;57876;47.792;12.960;2023-03-14T06:12:41;95209.31;;;15.68;44.44
70434;BME280;57876;47.792;12.960;2023-03-14T06:15:06;95208.53;;;15.67;44.34
70434;BME280;57876;47.792;12.960;2023-03-14T06:17:31;95203.84;;;15.68;43.96
70434;BME280;57876;47.792;12.960;2023-03-14T06:19:55;95213.19;;;15.67;43.91
70434;BME280;57876;47.792;12.960;2023-03-14T06:22:20;95203.84;;;15.68;44.41
70434;BME280;57876;47.792;12.960;2023-03-14T06:24:44;95186.72;;;15.67;44.18
70434;BME280;57876;47.792;12.960;2023-03-14T06:27:09;95186.28;;;15.65;43.99
70434;BME280;57876;47.792;12.960;2023-03-14T06:29:33;95183.56;;;15.65;44.02
70434;BME280;57876;47.792;12.960;2023-03-14T06:31:57;95185.13;;;15.66;43.91
70434;BME280;57876;47.792;12.960;2023-03-14T06:34:22;95179.31;;;15.68;44.23
70434;BME280;57876;47.792;12.960;2023-03-14T06:36:46;95175.03;;;15.67;43.95
70434;BME280;57876;47.792;12.960;2023-03-14T06:39:11;95157.09;;;15.66;44.16
70434;BME280;57876;47.792;12.960;2023-03-14T06:41:35;95163.75;;;15.68;43.97
70434;BME280;57876;47.792;12.960;2023-03-14T06:43:59;95179.78;;;15.70;44.32
70434;BME280;57876;47.792;12.960;2023-03-14T06:46:24;95168.91;;;15.70;44.11
70434;BME280;57876;47.792;12.960;2023-03-14T06:48:48;95172.06;;;15.72;44.29
70434;BME280;57876;47.792;12.960;2023-03-14T06:51:12;95175.13;;;15.70;44.04
70434;BME280;57876;47.792;12.960;2023-03-14T06:53:37;95160.34;;;15.71;44.22
70434;BME280;57876;47.792;12.960;2023-03-14T06:56:01;95159.56;;;15.71;44.04
70434;BME280;57876;47.792;12.960;2023-03-14T06:58:27;95165.44;;;15.73;44.03
70434;BME280;57876;47.792;12.960;2023-03-14T07:00:53;95167.38;;;15.72;44.17
70434;BME280;57876;47.792;12.960;2023-03-14T07:03:18;95168.97;;;15.73;44.43
70434;BME280;57876;47.792;12.960;2023-03-14T07:05:42;95179.84;;;15.73;44.25
70434;BME280;57876;47.792;12.960;2023-03-14T07:08:08;95177.13;;;15.73;44.04
70434;BME280;57876;47.792;12.960;2023-03-14T07:10:33;95182.97;;;15.72;44.31
70434;BME280;57876;47.792;12.960;2023-03-14T07:12:57;95184.53;;;15.73;44.23
70434;BME280;57876;47.792;12.960;2023-03-14T07:15:21;95181.44;;;15.74;44.09
70434;BME280;57876;47.792;12.960;2023-03-14T07:17:46;95198.59;;;15.75;44.01
70434;BME280;57876;47.792;12.960;2023-03-14T07:20:12;95197.00;;;15.74;43.99
70434;BME280;57876;47.792;12.960;2023-03-14T07:22:36;95187.69;;;15.75;44.50
70434;BME280;57876;47.792;12.960;2023-03-14T07:25:00;95198.22;;;15.76;44.19
70434;BME280;57876;47.792;12.960;2023-03-14T07:27:25;95199.00;;;15.77;44.14
70434;BME280;57876;47.792;12.960;2023-03-14T07:29:49;95191.63;;;15.77;44.17
70434;BME280;57876;47.792;12.960;2023-03-14T07:32:13;95185.38;;;15.77;44.36
70434;BME280;57876;47.792;12.960;2023-03-14T07:34:38;95188.91;;;15.77;44.06
70434;BME280;57876;47.792;12.960;2023-03-14T07:37:03;95180.75;;;15.77;44.18
70434;BME280;57876;47.792;12.960;2023-03-14T07:39:29;95190.81;;;15.77;44.40
70434;BME280;57876;47.792;12.960;2023-03-14T07:41:53;95183.81;;;15.76;44.21
70434;BME280;57876;47.792;12.960;2023-03-14T07:44:17;95190.47;;;15.78;44.24
70434;BME280;57876;47.792;12.960;2023-03-14T07:46:42;95209.91;;;15.77;44.09
70434;BME280;57876;47.792;12.960;2023-03-14T07:49:06;95221.25;;;15.79;44.53
70434;BME280;57876;47.792;12.960;2023-03-14T07:51:30;95229.44;;;15.79;44.33
70434;BME280;57876;47.792;12.960;2023-03-14T07:53:55;95236.03;;;15.78;44.17
70434;BME280;57876;47.792;12.960;2023-03-14T07:56:19;95235.66;;;15.79;44.37
70434;BME280;57876;47.792;12.960;2023-03-14T07:58:44;95232.16;;;15.79;44.33
70434;BME280;57876;47.792;12.960;2023-03-14T08:01:08;95236.03;;;15.78;44.27
70434;BME280;57876;47.792;12.960;2023-03-14T08:03:33;95241.13;;;15.79;44.55
70434;BME280;57876;47.792;12.960;2023-03-14T08:05:57;95236.81;;;15.78;44.39
70434;BME280;57876;47.792;12.960;2023-03-14T08:08:21;95243.06;;;15.79;44.68
70434;BME280;57876;47.792;12.960;2023-03-14T08:10:46;95238.38;;;15.79;44.63
70434;BME280;57876;47.792;12.960;2023-03-14T08:13:10;95233.31;;;15.78;44.42
70434;BME280;57876;47.792;12.960;2023-03-14T08:15:35;95237.16;;;15.77;44.35
70434;BME280;57876;47.792;12.960;2023-03-14T08:18:00;95245.00;;;15.78;44.22
70434;BME280;57876;47.792;12.960;2023-03-14T08:20:28;95239.88;;;15.77;44.40
70434;BME280;57876;47.792;12.960;2023-03-14T08:23:04;95248.16;;;15.80;44.61
70434;BME280;57876;47.792;12.960;2023-03-14T08:25:29;95251.69;;;15.81;44.34
70434;BME280;57876;47.792;12.960;2023-03-14T08:27:54;95257.13;;;15.81;44.52
70434;BME280;57876;47.792;12.960;2023-03-14T08:30:19;95258.69;;;15.82;44.27
70434;BME280;57876;47.792;12.960;2023-03-14T08:32:44;95257.91;;;15.81;44.50
70434;BME280;57876;47.792;12.960;2023-03-14T08:35:09;95255.19;;;15.81;44.64
70434;BME280;57876;47.792;12.960;2023-03-14T08:37:34;95253.25;;;15.82;44.40
70434;BME280;57876;47.792;12.960;2023-03-14T08:39:59;95255.97;;;15.82;44.62
70434;BME280;57876;47.792;12.960;2023-03-14T08:42:24;95253.63;;;15.80;44.28
70434;BME280;57876;47.792;12.960;2023-03-14T08:44:48;95264.97;;;15.82;44.31
70434;BME280;57876;47.792;12.960;2023-03-14T08:47:13;95268.47;;;15.83;44.48
70434;BME280;57876;47.792;12.960;2023-03-14T08:49:38;95258.69;;;15.82;44.67
70434;BME280;57876;47.792;12.960;2023-03-14T08:52:04;95266.47;;;15.80;44.67
70434;BME280;57876;47.792;12.960;2023-03-14T08:54:28;95279.38;;;15.83;44.43
70434;BME280;57876;47.792;12.960;2023-03-14T08:56:53;95293.78;;;15.83;44.67
70434;BME280;57876;47.792;12.960;2023-03-14T08:59:17;95295.38;;;15.84;44.72
70434;BME280;57876;47.792;12.960;2023-03-14T09:01:42;95283.16;;;15.78;44.36
70434;BME280;57876;47.792;12.960;2023-03-14T09:04:06;95290.19;;;15.79;44.91
70434;BME280;57876;47.792;12.960;2023-03-14T09:06:31;95302.25;;;15.78;44.33
70434;BME280;57876;47.792;12.960;2023-03-14T09:08:56;95315.25;;;15.85;44.40
70434;BME280;57876;47.792;12.960;2023-03-14T09:11:20;95317.19;;;15.84;44.49
70434;BME280;57876;47.792;12.960;2023-03-14T09:13:44;95319.13;;;15.84;44.31
70434;BME280;57876;47.792;12.960;2023-03-14T09:16:09;95318.00;;;15.85;44.38
70434;BME280;57876;47.792;12.960;2023-03-14T09:18:33;95317.19;;;15.84;44.67
70434;BME280;57876;47.792;12.960;2023-03-14T09:20:58;95311.72;;;15.84;44.71
70434;BME280;57876;47.792;12.960;2023-03-14T09:23:22;95298.91;;;15.85;44.43
70434;BME280;57876;47.792;12.960;2023-03-14T09:25:46;95305.94;;;15.86;44.79
70434;BME280;57876;47.792;12.960;2023-03-14T09:28:11;95300.81;;;15.84;44.76
70434;BME280;57876;47.792;12.960;2023-03-14T09:30:36;95300.47;;;15.86;44.39
70434;BME280;57876;47.792;12.960;2023-03-14T09:33:00;95304.34;;;15.85;44.71
70434;BME280;57876;47.792;12.960;2023-03-14T09:35:25;95322.63;;;15.84;44.64
70434;BME280;57876;47.792;12.960;2023-03-14T09:37:49;95311.72;;;15.84;44.80
70434;BME280;57876;47.792;12.960;2023-03-14T09:40:16;95309.00;;;15.84;44.83
70434;BME280;57876;47.792;12.960;2023-03-14T09:42:42;95328.91;;;15.85;44.56
70434;BME280;57876;47.792;12.960;2023-03-14T09:45:34;95323.84;;;15.87;44.82
70434;BME280;57876;47.792;12.960;2023-03-14T09:48:02;95309.00;;;15.84;44.75
70434;BME280;57876;47.792;12.960;2023-03-14T09:50:32;95311.38;;;15.86;44.92
70434;BME280;57876;47.792;12.960;2023-03-14T09:53:04;95308.22;;;15.84;44.78
70434;BME280;57876;47.792;12.960;2023-03-14T09:55:31;95323.84;;;15.87;44.59
70434;BME280;57876;47.792;12.960;2023-03-14T09:58:00;95307.09;;;15.85;44.83
70434;BME280;57876;47.792;12.960;2023-03-14T10:00:28;95322.28;;;15.86;44.81
70434;BME280;57876;47.792;12.960;2023-03-14T10:05:37;95323.84;;;15.87;44.89
70434;BME280;57876;47.792;12.960;2023-03-14T10:08:02;95313.66;;;15.84;44.53
70434;BME280;57876;47.792;12.960;2023-03-14T10:10:27;95327.38;;;15.88;44.61
70434;BME280;57876;47.792;12.960;2023-03-14T10:12:57;95333.19;;;15.86;44.91
70434;BME280;57876;47.792;12.960;2023-03-14T10:15:33;95342.94;;;15.87;44.55
70434;BME280;57876;47.792;12.960;2023-03-14T10:17:59;95337.94;;;15.89;44.86
70434;BME280;57876;47.792;12.960;2023-03-14T10:20:34;95342.59;;;15.89;45.02
70434;BME280;57876;47.792;12.960;2023-03-14T10:23:05;95302.75;;;15.84;44.80
70434;BME280;57876;47.792;12.960;2023-03-14T10:25:33;95318.78;;;15.85;44.68
70434;BME280;57876;47.792;12.960;2023-03-14T10:27:58;95312.53;;;15.85;44.92
70434;BME280;57876;47.792;12.960;2023-03-14T10:30:39;95323.50;;;15.89;44.97
70434;BME280;57876;47.792;12.960;2023-03-14T10:33:10;95315.59;;;15.83;44.99
70434;BME280;57876;47.792;12.960;2023-03-14T10:35:35;95329.75;;;15.89;44.74
70434;BME280;57876;47.792;12.960;2023-03-14T10:38:01;95320.34;;;15.87;44.99
70434;BME280;57876;47.792;12.960;2023-03-14T10:40:40;95320.00;;;15.88;44.89
70434;BME280;57876;47.792;12.960;2023-03-14T10:43:11;95325.44;;;15.88;44.90
70434;BME280;57876;47.792;12.960;2023-03-14T10:45:42;95322.72;;;15.88;45.06
70434;BME280;57876;47.792;12.960;2023-03-14T10:48:29;95321.13;;;15.87;44.86
70434;BME280;57876;47.792;12.960;2023-03-14T10:51:08;95327.03;;;15.89;44.77
70434;BME280;57876;47.792;12.960;2023-03-14T10:53:48;95326.59;;;15.87;44.54
70434;BME280;57876;47.792;12.960;2023-03-14T10:56:21;95328.97;;;15.89;44.49
70434;BME280;57876;47.792;12.960;2023-03-14T10:58:48;95328.19;;;15.88;44.69
70434;BME280;57876;47.792;12.960;2023-03-14T11:01:39;95337.94;;;15.89;44.85
70434;BME280;57876;47.792;12.960;2023-03-14T11:06:35;95336.69;;;15.87;44.92
70434;BME280;57876;47.792;12.960;2023-03-14T11:09:15;95328.19;;;15.88;44.77
70434;BME280;57876;47.792;12.960;2023-03-14T11:11:45;95325.09;;;15.90;44.68
70434;BME280;57876;47.792;12.960;2023-03-14T11:14:23;95320.41;;;15.90;45.00
70434;BME280;57876;47.792;12.960;2023-03-14T11:17:00;95316.91;;;15.90;44.73
70434;BME280;57876;47.792;12.960;2023-03-14T11:20:15;95320.41;;;15.90;44.71
70434;BME280;57876;47.792;12.960;2023-03-14T11:25:51;95310.66;;;15.89;45.03
70434;BME280;57876;47.792;12.960;2023-03-14T11:30:51;95318.84;;;15.89;44.69
70434;BME280;57876;47.792;12.960;2023-03-14T11:33:42;95309.09;;;15.88;44.71
70434;BME280;57876;47.792;12.960;2023-03-14T11:36:15;95306.38;;;15.88;44.69
70434;BME280;57876;47.792;12.960;2023-03-14T11:41:14;95302.03;;;15.87;44.58
70434;BME280;57876;47.792;12.960;2023-03-14T11:43:40;95319.63;;;15.90;44.53
70434;BME280;57876;47.792;12.960;2023-03-14T11:46:15;95318.84;;;15.89;44.75
70434;BME280;57876;47.792;12.960;2023-03-14T11:48:45;95323.50;;;15.89;44.96
70434;BME280;57876;47.792;12.960;2023-03-14T11:51:34;95320.00;;;15.88;44.96
70434;BME280;57876;47.792;12.960;2023-03-14T11:54:14;95318.50;;;15.91;44.92
70434;BME280;57876;47.792;12.960;2023-03-14T11:56:59;95324.28;;;15.89;44.79
70434;BME280;57876;47.792;12.960;2023-03-14T12:02:01;95317.28;;;15.88;44.97
70434;BME280;57876;47.792;12.960;2023-03-14T12:07:20;95295.88;;;15.90;44.61
70434;BME280;57876;47.792;12.960;2023-03-14T12:09:46;95290.41;;;15.90;44.84
70434;BME280;57876;47.792;12.960;2023-03-14T12:12:16;95290.41;;;15.90;45.05
70434;BME280;57876;47.792;12.960;2023-03-14T12:14:55;95261.25;;;15.91;44.88
70434;BME280;57876;47.792;12.960;2023-03-14T12:17:23;95254.63;;;15.92;44.72
70434;BME280;57876;47.792;12.960;2023-03-14T12:22:42;95246.00;;;15.90;44.79
70434;BME280;57876;47.792;12.960;2023-03-14T12:25:22;95244.50;;;15.92;44.80
70434;BME280;57876;47.792;12.960;2023-03-14T12:27:49;95237.50;;;15.91;45.20
70434;BME280;57876;47.792;12.960;2023-03-14T12:30:38;95236.25;;;15.89;44.60
70434;BME280;57876;47.792;12.960;2023-03-14T12:35:48;95224.66;;;15.92;44.89
70434;BME280;57876;47.792;12.960;2023-03-14T12:41:14;95227.03;;;15.93;45.06
70434;BME280;57876;47.792;12.960;2023-03-14T12:43:39;95230.88;;;15.92;45.17
70434;BME280;57876;47.792;12.960;2023-03-14T12:48:32;95207.50;;;15.91;44.84
70434;BME280;57876;47.792;12.960;2023-03-14T12:51:02;95191.56;;;15.93;44.94
70434;BME280;57876;47.792;12.960;2023-03-14T12:59:31;95188.84;;;15.93;44.77
70434;BME280;57876;47.792;12.960;2023-03-14T13:02:10;95176.34;;;15.92;45.22
70434;BME280;57876;47.792;12.960;2023-03-14T13:07:11;95174.78;;;15.91;44.68
70434;BME280;57876;47.792;12.960;2023-03-14T13:09:50;95169.31;;;15.91;45.04
70434;BME280;57876;47.792;12.960;2023-03-14T13:12:17;95161.59;;;15.93;45.11
70434;BME280;57876;47.792;12.960;2023-03-14T13:14:47;95166.22;;;15.93;44.75
70434;BME280;57876;47.792;12.960;2023-03-14T13:17:14;95164.31;;;15.93;44.67
70434;BME280;57876;47.792;12.960;2023-03-14T13:19:40;95164.31;;;15.93;45.04
70434;BME280;57876;47.792;12.960;2023-03-14T13:22:12;95156.13;;;15.93;45.07
70434;BME280;57876;47.792;12.960;2023-03-14T13:24:40;95157.25;;;15.92;44.66
70434;BME280;57876;47.792;12.960;2023-03-14T13:27:16;95157.25;;;15.92;44.72
70434;BME280;57876;47.792;12.960;2023-03-14T13:29:42;95155.31;;;15.93;45.11
70434;BME280;57876;47.792;12.960;2023-03-14T13:32:19;95152.59;;;15.93;45.22